Time,TemperatureF,DewpointF,PressureIn,WindDirection,WindDirectionDegrees,WindSpeedMPH,WindSpeedGustMPH,Humidity,HourlyPrecipIn,Conditions,Clouds,dailyrainin,SoftwareType,DateUTC
2013-05-21 00:02:00,76.0,70.0,29.78,West,274,2.0,10.0,81,0.00,,,0.00,,2013-05-21 05:02:00,
2013-05-21 00:12:00,76.0,70.0,29.78,WSW,246,3.0,12.0,81,0.00,,,0.00,,2013-05-21 05:12:00,
2013-05-21 00:22:00,76.0,70.0,29.78,WSW,246,3.0,12.0,81,0.00,,,0.00,,2013-05-21 05:22:00,
2013-05-21 00:32:00,75.0,69.0,29.79,West,260,5.0,12.0,83,0.00,,,0.00,,2013-05-21 05:32:00,
2013-05-21 00:42:00,75.0,69.0,29.79,West,271,5.0,12.0,83,0.00,,,0.00,,2013-05-21 05:42:00,
2013-05-21 00:51:00,75.0,69.0,29.79,West,271,5.0,12.0,83,0.00,,,0.00,,2013-05-21 05:51:00,
2013-05-21 01:02:00,75.0,69.0,29.79,SW,229,2.0,12.0,83,0.00,,,0.00,,2013-05-21 06:02:00,
2013-05-21 01:12:00,75.0,69.0,29.79,SW,229,2.0,12.0,83,0.00,,,0.00,,2013-05-21 06:12:00,
2013-05-21 01:21:00,75.0,70.0,29.78,WSW,243,2.0,7.0,85,0.00,,,0.00,,2013-05-21 06:21:00,
2013-05-21 01:32:00,75.0,71.0,29.77,WSW,250,0.0,8.0,86,0.00,,,0.00,,2013-05-21 06:32:00,
2013-05-21 01:42:00,75.0,71.0,29.77,WSW,250,0.0,8.0,86,0.00,,,0.00,,2013-05-21 06:42:00,
2013-05-21 01:51:00,75.0,71.0,29.78,WSW,244,1.0,8.0,86,0.00,,,0.00,,2013-05-21 06:51:00,
2013-05-21 02:01:00,75.0,71.0,29.78,WSW,240,3.0,8.0,86,0.00,,,0.00,,2013-05-21 07:01:00,
2013-05-21 02:11:00,74.0,70.0,29.78,SW,234,2.0,10.0,86,0.00,,,0.00,,2013-05-21 07:11:00,
2013-05-21 02:22:00,74.0,70.0,29.78,SW,234,2.0,10.0,86,0.00,,,0.00,,2013-05-21 07:22:00,
2013-05-21 02:31:00,74.0,70.0,29.78,WSW,248,5.0,8.0,86,0.00,,,0.00,,2013-05-21 07:31:00,
2013-05-21 02:41:00,74.0,70.0,29.78,WSW,248,5.0,8.0,86,0.00,,,0.00,,2013-05-21 07:41:00,
2013-05-21 02:52:00,74.0,70.0,29.77,SW,234,0.0,8.0,86,0.00,,,0.00,,2013-05-21 07:52:00,
2013-05-21 03:02:00,74.0,70.0,29.77,WSW,240,4.0,8.0,86,0.00,,,0.00,,2013-05-21 08:02:00,
2013-05-21 03:11:00,74.0,70.0,29.76,West,270,4.0,9.0,87,0.00,,,0.00,,2013-05-21 08:11:00,
2013-05-21 03:21:00,74.0,70.0,29.76,West,270,4.0,9.0,87,0.00,,,0.00,,2013-05-21 08:21:00,
2013-05-21 03:31:00,74.0,70.0,29.75,WSW,251,1.0,14.0,87,0.00,,,0.00,,2013-05-21 08:31:00,
2013-05-21 03:41:00,74.0,70.0,29.75,WSW,256,5.0,14.0,88,0.00,,,0.00,,2013-05-21 08:41:00,
2013-05-21 03:52:00,74.0,70.0,29.75,WSW,256,5.0,14.0,88,0.00,,,0.00,,2013-05-21 08:52:00,
2013-05-21 04:01:00,74.0,70.0,29.75,WSW,246,5.0,14.0,88,0.00,,,0.00,,2013-05-21 09:01:00,
2013-05-21 04:11:00,70.0,66.0,29.82,WNW,291,1.0,13.0,87,0.00,,,0.00,,2013-05-21 09:11:00,
2013-05-21 04:21:00,70.0,66.0,29.82,WNW,291,1.0,13.0,87,0.00,,,0.00,,2013-05-21 09:21:00,
2013-05-21 04:32:00,67.0,65.0,29.82,SW,236,10.0,32.0,93,0.01,,,0.01,,2013-05-21 09:32:00,
2013-05-21 04:42:00,67.0,65.0,29.82,SW,236,10.0,32.0,93,0.01,,,0.01,,2013-05-21 09:42:00,
2013-05-21 04:52:00,67.0,66.0,29.81,SW,234,2.0,32.0,96,0.01,,,0.01,,2013-05-21 09:52:00,
2013-05-21 05:02:00,67.0,66.0,29.81,SW,232,0.0,32.0,97,0.01,,,0.01,,2013-05-21 10:02:00,
2013-05-21 05:12:00,67.0,66.0,29.81,SW,232,0.0,32.0,97,0.01,,,0.01,,2013-05-21 10:12:00,
2013-05-21 05:22:00,67.0,66.0,29.81,SW,233,0.0,17.0,98,0.03,,,0.03,,2013-05-21 10:22:00,
2013-05-21 06:32:00,67.0,9.0,29.82,SSE,147,2.0,11.0,10,0.06,,,0.10,,2013-05-21 11:32:00,
2013-05-21 06:41:00,67.0,9.0,29.82,SSE,147,2.0,11.0,10,0.06,,,0.10,,2013-05-21 11:41:00,
2013-05-21 06:51:00,67.0,9.0,29.81,SE,131,2.0,11.0,10,0.06,,,0.10,,2013-05-21 11:51:00,
2013-05-21 07:01:00,67.0,9.0,29.79,SE,136,0.0,11.0,10,0.06,,,0.10,,2013-05-21 12:01:00,
2013-05-21 07:11:00,67.0,9.0,29.79,SE,136,0.0,11.0,10,0.06,,,0.10,,2013-05-21 12:11:00,
2013-05-21 07:21:00,68.0,9.0,29.80,SSW,209,0.0,7.0,10,0.07,,,0.13,,2013-05-21 12:21:00,
2013-05-21 07:32:00,68.0,9.0,29.80,SSW,213,0.0,4.0,10,0.06,,,0.16,,2013-05-21 12:32:00,
2013-05-21 07:42:00,68.0,9.0,29.80,SSW,213,0.0,4.0,10,0.06,,,0.16,,2013-05-21 12:42:00,
2013-05-21 07:51:00,68.0,9.0,29.80,SSW,213,0.0,4.0,10,0.06,,,0.16,,2013-05-21 12:51:00,
2013-05-21 08:01:00,70.0,11.0,29.82,West,270,3.0,4.0,10,0.06,,,0.16,,2013-05-21 13:01:00,
2013-05-21 08:12:00,70.0,11.0,29.82,West,270,3.0,4.0,10,0.06,,,0.16,,2013-05-21 13:12:00,
2013-05-21 08:22:00,70.0,11.0,29.82,West,270,3.0,4.0,10,0.06,,,0.16,,2013-05-21 13:22:00,
2013-05-21 09:11:00,69.0,68.0,29.79,South,185,0.0,16.0,97,0.06,,,0.24,,2013-05-21 14:11:00,
2013-05-21 09:21:00,69.0,68.0,29.79,South,185,0.0,16.0,97,0.06,,,0.24,,2013-05-21 14:21:00,
2013-05-21 09:32:00,70.0,69.0,29.79,WSW,239,5.0,8.0,97,0.06,,,0.27,,2013-05-21 14:32:00,
2013-05-21 09:41:00,71.0,70.0,29.81,WSW,246,7.0,8.0,97,0.06,,,0.27,,2013-05-21 14:41:00,
2013-05-21 09:51:00,71.0,70.0,29.81,WSW,246,7.0,8.0,97,0.06,,,0.27,,2013-05-21 14:51:00,
2013-05-21 10:01:00,70.0,69.0,29.81,SW,216,3.0,8.0,96,0.06,,,0.27,,2013-05-21 15:01:00,
2013-05-21 10:11:00,70.0,69.0,29.82,WSW,244,1.0,15.0,98,0.06,,,0.30,,2013-05-21 15:11:00,
2013-05-21 10:21:00,70.0,69.0,29.82,WSW,244,1.0,15.0,98,0.06,,,0.30,,2013-05-21 15:21:00,
2013-05-21 11:13:00,68.0,67.0,29.84,SSW,205,2.0,14.0,98,0.05,,,0.35,,2013-05-21 16:13:00,
2013-05-21 11:23:00,68.0,67.0,29.84,SSW,205,2.0,14.0,98,0.05,,,0.35,,2013-05-21 16:23:00,
2013-05-21 11:32:00,68.0,68.0,29.84,SSW,212,2.0,11.0,99,0.06,,,0.38,,2013-05-21 16:32:00,
2013-05-21 11:42:00,69.0,69.0,29.84,WSW,239,11.0,11.0,99,0.06,,,0.38,,2013-05-21 16:42:00,
2013-05-21 11:52:00,69.0,69.0,29.84,WSW,239,11.0,11.0,99,0.06,,,0.38,,2013-05-21 16:52:00,
2013-05-21 12:02:00,68.0,9.0,29.84,SW,236,10.0,11.0,10,0.06,,,0.38,,2013-05-21 17:02:00,
2013-05-21 12:12:00,68.0,9.0,29.84,SW,236,10.0,11.0,10,0.06,,,0.38,,2013-05-21 17:12:00,
2013-05-21 12:23:00,68.0,9.0,29.84,SW,236,10.0,11.0,10,0.06,,,0.38,,2013-05-21 17:23:00,
2013-05-21 12:32:00,68.0,67.0,29.84,SW,229,14.0,28.0,98,0.05,,,0.43,,2013-05-21 17:32:00,
2013-05-21 12:44:00,68.0,67.0,29.84,SW,229,14.0,28.0,98,0.05,,,0.43,,2013-05-21 17:44:00,
2013-05-21 12:52:00,68.0,67.0,29.84,SW,229,14.0,28.0,98,0.05,,,0.43,,2013-05-21 17:52:00,
2013-05-21 13:01:00,68.0,67.0,29.84,SW,229,14.0,28.0,98,0.05,,,0.43,,2013-05-21 18:01:00,
2013-05-21 13:42:00,71.0,71.0,29.79,WSW,250,0.0,7.0,99,0.06,,,0.49,,2013-05-21 18:42:00,
2013-05-21 13:52:00,71.0,71.0,29.79,WSW,250,0.0,7.0,99,0.06,,,0.49,,2013-05-21 18:52:00,
2013-05-21 14:01:00,71.0,70.0,29.79,WSW,254,4.0,7.0,97,0.06,,,0.49,,2013-05-21 19:01:00,
2013-05-21 14:11:00,72.0,71.0,29.78,WSW,251,2.0,7.0,97,0.05,,,0.51,,2013-05-21 19:11:00,
2013-05-21 14:21:00,72.0,71.0,29.78,WSW,251,2.0,7.0,97,0.05,,,0.51,,2013-05-21 19:21:00,
2013-05-21 14:32:00,73.0,71.0,29.78,WSW,247,5.0,7.0,93,0.05,,,0.54,,2013-05-21 19:32:00,
2013-05-21 14:42:00,73.0,71.0,29.78,WSW,247,5.0,7.0,93,0.05,,,0.54,,2013-05-21 19:42:00,
2013-05-21 14:52:00,73.0,71.0,29.78,WSW,247,5.0,7.0,93,0.05,,,0.54,,2013-05-21 19:52:00,
2013-05-21 15:03:00,73.0,71.0,29.78,WSW,247,5.0,7.0,93,0.05,,,0.54,,2013-05-21 20:03:00,
2013-05-21 15:11:00,77.0,72.0,29.76,WSW,247,5.0,10.0,85,0.04,,,0.55,,2013-05-21 20:11:00,
2013-05-21 15:22:00,77.0,72.0,29.76,WSW,247,5.0,10.0,85,0.04,,,0.55,,2013-05-21 20:22:00,
2013-05-21 15:32:00,77.0,72.0,29.75,WSW,241,4.0,10.0,86,0.03,,,0.57,,2013-05-21 20:32:00,
2013-05-21 15:42:00,77.0,70.0,29.74,WSW,241,5.0,10.0,79,0.03,,,0.57,,2013-05-21 20:42:00,
2013-05-21 15:52:00,77.0,70.0,29.74,WSW,241,5.0,10.0,79,0.03,,,0.57,,2013-05-21 20:52:00,
2013-05-21 16:02:00,77.0,71.0,29.74,WSW,237,3.0,10.0,81,0.03,,,0.57,,2013-05-21 21:02:00,
2013-05-21 16:11:00,77.0,70.0,29.73,WSW,243,7.0,10.0,79,0.03,,,0.58,,2013-05-21 21:11:00,
2013-05-21 16:21:00,77.0,70.0,29.73,WSW,243,7.0,10.0,79,0.03,,,0.58,,2013-05-21 21:21:00,
2013-05-21 16:33:00,77.0,69.0,29.72,WSW,244,6.0,12.0,76,0.04,,,0.61,,2013-05-21 21:33:00,
2013-05-21 16:43:00,77.0,70.0,29.72,WSW,243,0.0,12.0,78,0.04,,,0.61,,2013-05-21 21:43:00,
2013-05-21 16:53:00,77.0,70.0,29.72,WSW,243,0.0,12.0,78,0.04,,,0.61,,2013-05-21 21:53:00,
2013-05-21 17:02:00,77.0,70.0,29.71,SW,233,6.0,12.0,78,0.04,,,0.61,,2013-05-21 22:02:00,
2013-05-21 17:12:00,77.0,70.0,29.71,SW,223,2.0,11.0,80,0.05,,,0.63,,2013-05-21 22:12:00,
2013-05-21 17:22:00,77.0,70.0,29.71,SW,223,2.0,11.0,80,0.05,,,0.63,,2013-05-21 22:22:00,
2013-05-21 17:33:00,77.0,70.0,29.70,WSW,240,3.0,10.0,79,0.04,,,0.65,,2013-05-21 22:33:00,
2013-05-21 17:42:00,77.0,70.0,29.69,SSW,212,2.0,10.0,79,0.04,,,0.65,,2013-05-21 22:42:00,
2013-05-21 17:52:00,77.0,70.0,29.69,SSW,212,2.0,10.0,79,0.04,,,0.65,,2013-05-21 22:52:00,
2013-05-21 18:02:00,76.0,70.0,29.70,WSW,240,5.0,10.0,81,0.04,,,0.65,,2013-05-21 23:02:00,
2013-05-21 18:12:00,76.0,69.0,29.70,SW,215,3.0,9.0,80,0.04,,,0.67,,2013-05-21 23:12:00,
2013-05-21 18:22:00,76.0,69.0,29.70,SW,215,3.0,9.0,80,0.04,,,0.67,,2013-05-21 23:22:00,
2013-05-21 18:32:00,75.0,69.0,29.70,SW,216,0.0,7.0,82,0.04,,,0.69,,2013-05-21 23:32:00,
2013-05-21 18:42:00,75.0,69.0,29.70,SW,216,0.0,7.0,82,0.04,,,0.69,,2013-05-21 23:42:00,
2013-05-21 18:52:00,75.0,69.0,29.70,SW,216,0.0,7.0,82,0.04,,,0.69,,2013-05-21 23:52:00,
2013-05-21 19:01:00,73.0,68.0,29.73,SW,217,7.0,7.0,85,0.04,,,0.69,,2013-05-22 00:01:00,
2013-05-21 19:11:00,68.0,67.0,29.78,WSW,257,6.0,11.0,98,0.03,,,0.70,,2013-05-22 00:11:00,
2013-05-21 19:21:00,68.0,67.0,29.78,WSW,257,6.0,11.0,98,0.03,,,0.70,,2013-05-22 00:21:00,
2013-05-21 19:41:00,68.0,9.0,29.76,WNW,296,0.0,38.0,10,0.03,,,0.72,,2013-05-22 00:41:00,
2013-05-21 19:51:00,68.0,9.0,29.76,WNW,296,0.0,38.0,10,0.03,,,0.72,,2013-05-22 00:51:00,
2013-05-21 20:32:00,68.0,9.0,29.75,ESE,123,2.0,8.0,10,0.05,,,0.77,,2013-05-22 01:32:00,
2013-05-21 20:41:00,68.0,9.0,29.75,ESE,123,1.0,8.0,10,0.05,,,0.77,,2013-05-22 01:41:00,
2013-05-21 20:52:00,68.0,9.0,29.75,ESE,123,1.0,8.0,10,0.05,,,0.77,,2013-05-22 01:52:00,
2013-05-21 21:01:00,68.0,9.0,29.76,SSE,158,0.0,8.0,10,0.05,,,0.77,,2013-05-22 02:01:00,
2013-05-21 21:11:00,68.0,9.0,29.75,SSE,167,2.0,7.0,10,0.06,,,0.81,,2013-05-22 02:11:00,
2013-05-21 21:21:00,68.0,9.0,29.75,SSE,167,2.0,7.0,10,0.06,,,0.81,,2013-05-22 02:21:00,
2013-05-21 21:32:00,68.0,9.0,29.75,South,179,3.0,7.0,10,0.09,,,0.86,,2013-05-22 02:32:00,
2013-05-21 21:42:00,68.0,9.0,29.75,SW,223,0.0,7.0,10,0.09,,,0.86,,2013-05-22 02:42:00,
2013-05-21 21:51:00,68.0,9.0,29.75,SW,223,0.0,7.0,10,0.09,,,0.86,,2013-05-22 02:51:00,
2013-05-21 22:01:00,68.0,9.0,29.76,South,189,2.0,7.0,10,0.09,,,0.86,,2013-05-22 03:01:00,
2013-05-21 22:11:00,68.0,9.0,29.76,South,189,3.0,8.0,10,0.09,,,0.90,,2013-05-22 03:11:00,
2013-05-21 22:21:00,68.0,9.0,29.76,South,189,3.0,8.0,10,0.09,,,0.90,,2013-05-22 03:21:00,
2013-05-21 22:33:00,68.0,9.0,29.75,SW,219,5.0,8.0,10,0.26,,,1.12,,2013-05-22 03:33:00,
2013-05-21 22:43:00,68.0,9.0,29.75,South,185,2.0,8.0,10,0.26,,,1.12,,2013-05-22 03:43:00,
2013-05-21 22:53:00,68.0,9.0,29.75,South,185,2.0,8.0,10,0.26,,,1.12,,2013-05-22 03:53:00,
2013-05-21 23:03:00,68.0,9.0,29.75,SSW,192,5.0,8.0,10,0.26,,,1.12,,2013-05-22 04:03:00,
2013-05-21 23:13:00,68.0,9.0,29.75,SSW,192,5.0,8.0,10,0.26,,,1.12,,2013-05-22 04:13:00,
2013-05-21 23:22:00,68.0,9.0,29.74,South,184,2.0,9.0,10,0.28,,,1.18,,2013-05-22 04:22:00,
2013-05-21 23:33:00,68.0,9.0,29.74,South,189,0.0,10.0,10,0.07,,,1.19,,2013-05-22 04:33:00,
2013-05-21 23:43:00,68.0,9.0,29.74,SSE,164,4.0,10.0,10,0.07,,,1.19,,2013-05-22 04:43:00,
2013-05-21 23:52:00,68.0,9.0,29.74,SSE,164,4.0,10.0,10,0.07,,,1.19,,2013-05-22 04:52:00,